Terminal Aerodrome Forecast
Issued by NWS

Home | Current Version | Previous Version | Graphics & Text | Print | Product List | Glossary On
Versions: 1 2 3 4 5 6 7 8 9 10 11 12 13
000
FTUS43 KICT 240853 AAA
TAFCNU
TAF AMD
KCNU 240853Z 2409/2506 34013KT P6SM -RASN OVC018
      TEMPO 2409/2413 5SM -RASN OVC012
     FM241600 32014G20KT P6SM SCT020 BKN030
     FM242000 30013KT P6SM SCT020 BKN035
     FM250300 21008KT P6SM SKC=

USA.gov is the U.S. government's official web portal to all federal, state and local government web resources and services.